Time;durP1;ratioP1;P1;durP2;ratioP2;P2;SDS_P1;SDS_P2;PMS_P1;PMS_P2;Temp;Humidity;BMP_temperature;BMP_pressure;BME280_temperature;BME280_humidity;BME280_pressure;Samples;Min_cycle;Max_cycle;Signal;HPM_P1;HPM_P2
2023/04/03 00:00:49;;;;;;;5.65;0.93;;;1.60;99.90;;;;;;5077938;28;20144;-80
2023/04/03 00:03:17;;;;;;;2.05;0.80;;;1.60;99.90;;;;;;5062147;28;20560;-80
2023/04/03 00:05:45;;;;;;;2.53;0.82;;;2.40;99.90;;;;;;5094383;28;20048;-79
2023/04/03 00:08:11;;;;;;;3.13;0.98;;;1.60;99.90;;;;;;5061569;28;20046;-80
2023/04/03 00:10:38;;;;;;;3.10;0.98;;;1.60;99.90;;;;;;5078399;28;20056;-80
2023/04/03 00:13:06;;;;;;;2.50;0.80;;;1.60;99.90;;;;;;5061398;28;20381;-79
2023/04/03 00:15:33;;;;;;;2.25;0.90;;;2.40;99.90;;;;;;5094876;28;20051;-80
2023/04/03 00:18:00;;;;;;;3.25;1.00;;;1.50;99.90;;;;;;5077730;28;20036;-80
2023/04/03 00:20:27;;;;;;;3.53;1.38;;;2.30;99.90;;;;;;5106719;28;20055;-80
2023/04/03 00:22:54;;;;;;;4.70;1.20;;;2.10;99.90;;;;;;5094504;28;20040;-80
2023/04/03 00:25:21;;;;;;;4.03;0.90;;;1.50;99.90;;;;;;5111237;28;20079;-80
2023/04/03 00:27:48;;;;;;;2.75;0.80;;;1.50;99.90;;;;;;5099289;28;20071;-80
2023/04/03 00:30:17;;;;;;;3.97;1.05;;;1.40;99.90;;;;;;5074075;28;20048;-80
2023/04/03 00:32:44;;;;;;;4.47;1.00;;;1.40;99.90;;;;;;5081357;28;20897;-80
2023/04/03 00:35:11;;;;;;;4.20;1.10;;;1.40;99.90;;;;;;5094366;28;20127;-79
2023/04/03 00:37:38;;;;;;;4.30;0.82;;;2.00;99.90;;;;;;5094331;28;20040;-80
2023/04/03 00:40:05;;;;;;;3.40;1.08;;;1.30;99.90;;;;;;5086077;28;20043;-80
2023/04/03 00:42:32;;;;;;;3.85;1.10;;;1.30;99.90;;;;;;5090851;28;20043;-80
2023/04/03 00:45:00;;;;;;;4.75;0.90;;;1.30;99.90;;;;;;5074017;28;20393;-79
2023/04/03 00:47:27;;;;;;;3.15;1.00;;;1.20;99.90;;;;;;5090958;28;20044;-80
2023/04/03 00:49:54;;;;;;;3.90;1.30;;;1.20;99.90;;;;;;5073720;28;20044;-80
2023/04/03 00:52:26;;;;;;;5.10;1.33;;;1.20;99.90;;;;;;5057406;28;20029;-80
2023/04/03 00:54:56;;;;;;;6.95;1.85;;;1.40;99.90;;;;;;5070036;28;20405;-79
2023/04/03 00:57:24;;;;;;;3.83;1.10;;;1.20;99.90;;;;;;5069959;28;20512;-80
2023/04/03 00:59:55;;;;;;;3.05;1.15;;;1.10;99.90;;;;;;5053419;28;20460;-80
2023/04/03 01:02:21;;;;;;;4.25;1.13;;;1.30;99.90;;;;;;5070087;28;20048;-80
2023/04/03 01:04:48;;;;;;;3.28;1.00;;;1.60;99.90;;;;;;5055582;28;21906;-81
2023/04/03 01:07:18;;;;;;;3.20;1.33;;;1.10;99.90;;;;;;5089997;28;20043;-80
2023/04/03 01:09:46;;;;;;;3.78;1.20;;;1.10;99.90;;;;;;5090288;28;20052;-80
2023/04/03 01:12:19;;;;;;;5.78;1.20;;;1.10;99.90;;;;;;5106264;28;20823;-80
2023/04/03 01:14:48;;;;;;;3.72;1.10;;;1.10;99.90;;;;;;5073497;28;20047;-80
2023/04/03 01:17:51;;;;;;;4.35;1.00;;;1.00;99.90;;;;;;5106971;28;20041;-80
2023/04/03 01:20:34;;;;;;;3.60;1.10;;;1.00;99.90;;;;;;5056586;28;20053;-80
2023/04/03 01:23:13;;;;;;;2.78;1.15;;;1.70;99.90;;;;;;5069702;28;20043;-79
2023/04/03 01:25:41;;;;;;;3.53;1.27;;;1.40;99.90;;;;;;5069797;28;20037;-80
2023/04/03 01:28:12;;;;;;;3.95;1.20;;;1.00;99.90;;;;;;5053019;28;20551;-80
2023/04/03 01:31:21;;;;;;;5.38;1.30;;;1.80;99.90;;;;;;5070759;28;20128;-80
2023/04/03 01:33:48;;;;;;;5.72;1.20;;;0.90;99.90;;;;;;5074263;28;20048;-80
2023/04/03 01:36:21;;;;;;;3.88;1.40;;;0.80;99.90;;;;;;5060079;28;20565;-80
2023/04/03 01:38:48;;;;;;;5.80;1.38;;;0.80;99.90;;;;;;5093022;28;20127;-80
2023/04/03 01:41:15;;;;;;;6.70;1.20;;;0.70;99.90;;;;;;5075983;28;20452;-79
2023/04/03 01:43:42;;;;;;;5.32;1.50;;;0.80;99.90;;;;;;5090788;28;20042;-79
2023/04/03 01:46:09;;;;;;;2.58;1.15;;;1.00;99.90;;;;;;5059592;28;20048;-80
2023/04/03 01:48:36;;;;;;;4.68;1.13;;;0.70;99.90;;;;;;5075712;28;20052;-80
2023/04/03 01:51:03;;;;;;;2.55;1.10;;;0.70;99.90;;;;;;5075880;28;20028;-79
2023/04/03 01:53:30;;;;;;;6.05;1.33;;;1.10;99.90;;;;;;5076119;28;20040;-80
2023/04/03 01:55:56;;;;;;;3.25;1.20;;;1.30;99.90;;;;;;5047338;28;20041;-82
2023/04/03 01:58:23;;;;;;;3.55;1.20;;;0.60;99.90;;;;;;5055931;28;20037;-79
2023/04/03 02:00:50;;;;;;;3.17;1.25;;;1.30;99.90;;;;;;5056220;28;20119;-80
2023/04/03 02:03:18;;;;;;;6.85;1.70;;;0.50;99.90;;;;;;5055817;28;20545;-80
2023/04/03 02:05:45;;;;;;;5.05;1.38;;;1.20;99.90;;;;;;5072934;28;20105;-80
2023/04/03 02:08:11;;;;;;;7.60;1.73;;;1.40;99.90;;;;;;5055925;28;20476;-80
2023/04/03 02:10:38;;;;;;;4.90;1.20;;;0.70;99.90;;;;;;5056496;28;20052;-79
2023/04/03 02:13:05;;;;;;;3.95;1.10;;;0.60;99.90;;;;;;5056187;28;20032;-80
2023/04/03 02:15:32;;;;;;;4.95;1.40;;;0.70;99.90;;;;;;5056065;28;20036;-80
2023/04/03 02:17:58;;;;;;;3.40;1.75;;;0.40;99.90;;;;;;5039721;28;20504;-80
2023/04/03 02:20:26;;;;;;;4.53;1.35;;;0.40;99.90;;;;;;5059833;28;20505;-80
2023/04/03 02:22:52;;;;;;;4.63;1.50;;;1.00;99.90;;;;;;5109712;28;20036;-80
2023/04/03 02:25:20;;;;;;;5.10;1.30;;;0.30;99.90;;;;;;5108925;28;20051;-80
2023/04/03 02:27:46;;;;;;;3.08;1.27;;;0.30;99.90;;;;;;5069504;28;20452;-80
2023/04/03 02:30:14;;;;;;;4.82;1.33;;;0.30;99.90;;;;;;5052278;28;20044;-80
2023/04/03 02:32:42;;;;;;;3.20;1.30;;;0.20;99.90;;;;;;5076082;28;20115;-80
2023/04/03 02:35:10;;;;;;;4.65;1.50;;;0.60;99.90;;;;;;5092597;28;20130;-80
2023/04/03 02:37:37;;;;;;;7.07;1.48;;;0.20;99.90;;;;;;5126001;28;20464;-80
2023/04/03 02:40:05;;;;;;;5.95;1.38;;;0.50;99.90;;;;;;5108718;28;20043;-80
2023/04/03 02:42:32;;;;;;;5.68;1.40;;;0.10;99.90;;;;;;5092478;28;20036;-80
2023/04/03 02:45:00;;;;;;;6.70;1.55;;;0.10;99.90;;;;;;5090379;28;20041;-80
2023/04/03 02:47:27;;;;;;;6.80;1.55;;;0.60;99.90;;;;;;5071919;28;20043;-80
2023/04/03 02:49:54;;;;;;;5.63;1.58;;;0.00;99.90;;;;;;5072288;28;20239;-79
2023/04/03 02:52:21;;;;;;;5.78;1.45;;;0.30;99.90;;;;;;5088605;28;20123;-80
2023/04/03 02:54:48;;;;;;;5.85;1.83;;;0.30;99.90;;;;;;5088767;28;20040;-80
2023/04/03 02:57:14;;;;;;;6.10;1.60;;;-0.10;99.90;;;;;;5072077;28;20404;-80
2023/04/03 02:59:41;;;;;;;4.25;1.50;;;0.40;99.90;;;;;;5089791;28;20040;-80
2023/04/03 03:02:09;;;;;;;7.03;1.58;;;0.60;99.90;;;;;;5075789;28;20128;-80
2023/04/03 03:04:36;;;;;;;7.22;1.80;;;0.40;99.90;;;;;;5092638;28;20040;-80
2023/04/03 03:07:03;;;;;;;5.75;1.40;;;-0.10;99.90;;;;;;5092410;28;20040;-79
2023/04/03 03:09:30;;;;;;;4.75;1.60;;;-0.10;99.90;;;;;;5092066;28;20045;-79
2023/04/03 03:11:57;;;;;;;4.60;1.30;;;0.10;99.90;;;;;;5099948;28;20047;-79
2023/04/03 03:14:24;;;;;;;9.85;1.55;;;-0.10;99.90;;;;;;5112415;28;20043;-80
2023/04/03 03:16:51;;;;;;;5.05;1.42;;;0.00;99.90;;;;;;5095830;28;20097;-80
2023/04/03 03:19:17;;;;;;;6.03;1.67;;;0.70;99.90;;;;;;5112068;28;20516;-80
2023/04/03 03:21:44;;;;;;;5.45;1.70;;;0.10;99.90;;;;;;5095810;28;20093;-80
2023/04/03 03:24:11;;;;;;;4.38;1.30;;;-0.10;99.90;;;;;;5078885;28;20489;-80
2023/04/03 03:26:38;;;;;;;5.38;1.58;;;0.70;99.90;;;;;;5075674;28;20047;-80
2023/04/03 03:29:05;;;;;;;3.75;1.40;;;0.80;99.90;;;;;;5075568;28;20036;-80
2023/04/03 03:31:32;;;;;;;4.75;1.58;;;0.20;99.90;;;;;;5075208;28;20033;-80
2023/04/03 03:33:58;;;;;;;5.20;1.50;;;0.70;99.90;;;;;;5091923;28;20047;-80
2023/04/03 03:36:25;;;;;;;5.32;1.73;;;-0.20;99.90;;;;;;5075076;28;20090;-80
2023/04/03 03:38:52;;;;;;;4.75;1.70;;;0.20;99.90;;;;;;5075127;28;20132;-80
2023/04/03 03:41:18;;;;;;;8.02;2.38;;;-0.20;99.90;;;;;;5075331;28;20045;-80
2023/04/03 03:43:45;;;;;;;5.43;1.90;;;-0.20;99.90;;;;;;5092060;28;20090;-80
2023/04/03 03:46:12;;;;;;;7.30;1.75;;;-0.20;99.90;;;;;;5074972;28;20036;-80
2023/04/03 03:48:39;;;;;;;7.80;2.22;;;-0.10;99.90;;;;;;5091684;28;20051;-80
2023/04/03 03:51:06;;;;;;;6.90;2.13;;;-0.20;99.90;;;;;;5091644;28;20036;-79
2023/04/03 03:53:33;;;;;;;4.63;1.83;;;-0.20;99.90;;;;;;5091141;28;20051;-80
2023/04/03 03:55:59;;;;;;;5.28;1.70;;;0.20;99.90;;;;;;5075093;28;20167;-80
2023/04/03 03:58:26;;;;;;;4.18;1.60;;;-0.20;99.90;;;;;;5107644;28;20497;-80
2023/04/03 04:00:53;;;;;;;8.05;1.60;;;-0.30;99.90;;;;;;5091480;28;20047;-80
2023/04/03 04:03:20;;;;;;;7.15;1.95;;;0.30;99.90;;;;;;5074602;28;20037;-80
2023/04/03 04:05:47;;;;;;;8.15;1.77;;;-0.30;99.90;;;;;;5074927;28;20032;-80
2023/04/03 04:08:14;;;;;;;7.75;1.70;;;-0.30;99.90;;;;;;5074684;28;20059;-80
2023/04/03 04:10:40;;;;;;;5.07;1.90;;;-0.30;99.90;;;;;;5073977;28;20127;-80
2023/04/03 04:13:07;;;;;;;6.03;1.98;;;-0.30;99.90;;;;;;5074849;28;20044;-80
2023/04/03 04:15:34;;;;;;;9.30;1.85;;;-0.30;99.90;;;;;;5074223;28;20043;-80
2023/04/03 04:18:01;;;;;;;9.13;1.95;;;0.30;99.90;;;;;;5074533;28;20033;-80
2023/04/03 04:20:27;;;;;;;6.63;1.85;;;0.00;99.90;;;;;;5074177;28;20052;-80
2023/04/03 04:22:54;;;;;;;7.43;1.88;;;-0.40;99.90;;;;;;5091567;28;20048;-80
2023/04/03 04:25:21;;;;;;;6.25;1.77;;;-0.40;99.90;;;;;;5091028;28;20040;-80
2023/04/03 04:27:47;;;;;;;6.70;1.88;;;0.30;99.90;;;;;;5090960;28;20036;-80
2023/04/03 04:30:14;;;;;;;9.05;1.90;;;0.10;99.90;;;;;;5074481;28;20051;-80
2023/04/03 04:32:41;;;;;;;4.93;1.65;;;-0.40;99.90;;;;;;5090759;28;20127;-80
2023/04/03 04:35:08;;;;;;;5.90;1.70;;;-0.40;99.90;;;;;;5091207;28;20504;-80
2023/04/03 04:37:34;;;;;;;7.75;1.80;;;-0.40;99.90;;;;;;5084365;28;20035;-80
2023/04/03 04:40:01;;;;;;;6.38;1.90;;;-0.40;99.90;;;;;;5094305;28;20036;-80
2023/04/03 04:42:28;;;;;;;3.85;1.63;;;-0.40;99.90;;;;;;5093856;28;20093;-80
2023/04/03 04:44:55;;;;;;;8.35;2.05;;;-0.10;99.90;;;;;;5093673;28;20500;-80
2023/04/03 04:47:22;;;;;;;5.38;1.50;;;-0.50;99.90;;;;;;5087368;28;20050;-80
2023/04/03 04:49:48;;;;;;;6.70;1.80;;;-0.50;99.90;;;;;;5073814;28;20053;-80
2023/04/03 04:52:15;;;;;;;8.55;1.70;;;-0.30;99.90;;;;;;5073724;28;20127;-80
2023/04/03 04:54:42;;;;;;;5.65;1.75;;;-0.50;99.90;;;;;;5073759;28;20163;-80
2023/04/03 04:57:08;;;;;;;8.18;2.08;;;-0.50;99.90;;;;;;5073567;28;20048;-80
2023/04/03 04:59:35;;;;;;;5.18;1.60;;;-0.50;99.90;;;;;;5092700;28;20093;-80
2023/04/03 05:02:02;;;;;;;6.80;2.33;;;-0.50;99.90;;;;;;5093484;28;20040;-80
2023/04/03 05:04:29;;;;;;;8.55;2.30;;;-0.50;99.90;;;;;;5093409;28;20040;-80
2023/04/03 05:06:55;;;;;;;7.40;2.08;;;-0.60;99.90;;;;;;5093996;28;20480;-80
2023/04/03 05:09:22;;;;;;;6.30;1.73;;;-0.50;99.90;;;;;;5096509;28;20044;-80
2023/04/03 05:11:49;;;;;;;3.58;1.63;;;-0.60;99.90;;;;;;5073673;28;20040;-80
2023/04/03 05:14:16;;;;;;;4.90;2.17;;;0.00;99.90;;;;;;5073557;28;20040;-80
2023/04/03 05:16:43;;;;;;;8.85;2.05;;;-0.60;99.90;;;;;;5073092;28;20037;-80
2023/04/03 05:19:10;;;;;;;8.68;2.15;;;-0.20;99.90;;;;;;5078497;28;20067;-80
2023/04/03 05:21:36;;;;;;;9.20;2.33;;;-0.60;99.90;;;;;;5092784;28;20039;-80
2023/04/03 05:24:03;;;;;;;8.10;1.90;;;0.10;99.90;;;;;;5109933;28;20039;-80
2023/04/03 05:26:31;;;;;;;7.53;2.17;;;-0.60;99.90;;;;;;5093185;28;20499;-80
2023/04/03 05:28:58;;;;;;;5.68;1.98;;;-0.60;99.90;;;;;;5093574;28;20094;-80
2023/04/03 05:31:25;;;;;;;7.00;1.90;;;0.10;99.90;;;;;;5092866;28;20044;-80
2023/04/03 05:33:51;;;;;;;7.00;1.95;;;-0.10;99.90;;;;;;5100276;28;20094;-80
2023/04/03 05:36:18;;;;;;;10.93;2.17;;;0.00;99.90;;;;;;5072948;28;20044;-80
2023/04/03 05:38:45;;;;;;;9.50;2.33;;;-0.60;99.90;;;;;;5089219;28;20052;-80
2023/04/03 05:41:12;;;;;;;6.93;2.42;;;0.40;99.90;;;;;;5056577;28;20476;-80
2023/04/03 05:43:38;;;;;;;4.68;1.83;;;-0.30;99.90;;;;;;5088984;28;20048;-80
2023/04/03 05:46:11;;;;;;;4.93;2.22;;;-0.60;99.90;;;;;;5056299;28;20426;-81
2023/04/03 05:48:38;;;;;;;10.50;2.40;;;0.30;99.90;;;;;;5088959;28;20047;-80
2023/04/03 05:51:06;;;;;;;4.43;1.90;;;-0.50;99.90;;;;;;5074273;28;20032;-80
2023/04/03 05:53:36;;;;;;;8.52;2.30;;;-0.50;99.90;;;;;;5088990;28;20036;-80
2023/04/03 05:56:04;;;;;;;10.15;2.97;;;0.50;99.90;;;;;;5106175;28;20044;-80
2023/04/03 05:58:30;;;;;;;4.85;2.20;;;-0.40;99.90;;;;;;5072793;28;20075;-80
2023/04/03 06:00:57;;;;;;;6.90;2.25;;;0.30;99.90;;;;;;5076239;28;20063;-80
2023/04/03 06:03:25;;;;;;;5.40;2.05;;;-0.30;99.90;;;;;;5073420;28;20075;-80
2023/04/03 06:05:52;;;;;;;7.38;2.50;;;-0.30;99.90;;;;;;5052388;28;20838;-80
2023/04/03 06:08:19;;;;;;;7.90;2.45;;;-0.30;99.90;;;;;;5052612;28;20787;-80
2023/04/03 06:10:46;;;;;;;5.57;1.88;;;-0.20;99.90;;;;;;5036182;28;20531;-80
2023/04/03 06:13:13;;;;;;;7.60;2.35;;;0.80;99.90;;;;;;5056170;28;20400;-80
2023/04/03 06:15:40;;;;;;;5.18;2.10;;;0.80;99.90;;;;;;5072227;28;20385;-79
2023/04/03 06:18:07;;;;;;;6.90;2.47;;;-0.10;99.90;;;;;;5072264;28;20055;-80
2023/04/03 06:20:34;;;;;;;10.60;2.63;;;0.00;99.90;;;;;;5059609;28;20055;-80
2023/04/03 06:23:00;;;;;;;8.50;2.22;;;0.20;99.90;;;;;;5092826;28;20036;-80
2023/04/03 06:25:27;;;;;;;6.85;2.40;;;0.10;99.90;;;;;;5076334;28;20487;-80
2023/04/03 06:27:55;;;;;;;8.15;2.47;;;0.10;99.90;;;;;;5075706;28;20483;-80
2023/04/03 06:30:22;;;;;;;7.72;2.60;;;0.70;99.90;;;;;;5060164;28;20491;-80
2023/04/03 06:32:48;;;;;;;8.10;2.72;;;0.70;99.90;;;;;;5087505;28;20035;-80
2023/04/03 06:35:15;;;;;;;7.78;2.67;;;1.20;99.90;;;;;;5079526;28;20123;-80
2023/04/03 06:37:42;;;;;;;6.38;2.22;;;0.30;99.90;;;;;;5095628;28;20119;-80
2023/04/03 06:40:19;;;;;;;7.20;2.05;;;0.40;99.90;;;;;;5079461;28;20040;-80
2023/04/03 06:42:46;;;;;;;9.20;2.38;;;1.40;99.90;;;;;;5113380;28;20085;-80
2023/04/03 06:45:13;;;;;;;7.32;2.50;;;0.40;99.90;;;;;;5099934;28;20032;-79
2023/04/03 06:47:40;;;;;;;6.57;2.05;;;0.50;99.90;;;;;;5133077;28;20043;-82
2023/04/03 06:50:08;;;;;;;5.07;2.00;;;0.70;99.90;;;;;;5116226;28;20035;-80
2023/04/03 06:52:35;;;;;;;6.05;2.55;;;0.60;99.90;;;;;;5090867;28;20050;-81
2023/04/03 06:55:02;;;;;;;6.40;2.17;;;0.70;99.90;;;;;;5059673;28;20048;-80
2023/04/03 06:57:29;;;;;;;6.70;2.15;;;0.70;99.90;;;;;;5043147;28;20040;-81
2023/04/03 06:59:56;;;;;;;6.05;2.25;;;1.90;99.90;;;;;;5060735;28;20070;-82
2023/04/03 07:02:23;;;;;;;7.57;2.42;;;1.20;99.90;;;;;;5095775;28;20035;-80
2023/04/03 07:04:50;;;;;;;5.53;2.40;;;1.20;99.90;;;;;;5111759;28;20081;-80
2023/04/03 07:07:17;;;;;;;10.23;2.97;;;1.00;99.90;;;;;;5062512;28;20036;-80
2023/04/03 07:09:46;;;;;;;10.30;2.40;;;2.00;99.90;;;;;;5095642;28;20067;-84
2023/04/03 07:12:13;;;;;;;6.63;2.55;;;1.20;99.90;;;;;;5095875;28;20552;-85
2023/04/03 07:14:41;;;;;;;5.45;2.28;;;1.80;99.90;;;;;;5129294;28;20081;-85
2023/04/03 07:17:08;;;;;;;6.28;2.30;;;1.40;99.90;;;;;;5079431;28;20044;-85
2023/04/03 07:19:34;;;;;;;7.18;2.42;;;2.30;99.90;;;;;;5112248;28;20062;-85
2023/04/03 07:22:01;;;;;;;8.88;2.42;;;1.60;99.90;;;;;;5062555;28;20039;-83
2023/04/03 07:24:28;;;;;;;7.03;2.45;;;1.70;99.90;;;;;;5062876;28;20641;-85
2023/04/03 07:26:54;;;;;;;7.63;2.53;;;2.20;99.90;;;;;;5061795;28;20054;-85
2023/04/03 07:29:21;;;;;;;9.45;2.38;;;1.90;99.90;;;;;;5061638;28;20040;-85
2023/04/03 07:31:49;;;;;;;9.05;2.55;;;2.00;99.90;;;;;;5110049;28;20036;-87
2023/04/03 07:34:15;;;;;;;6.32;2.25;;;2.20;99.90;;;;;;5063262;28;20036;-88
2023/04/03 07:36:42;;;;;;;6.95;2.05;;;2.30;99.90;;;;;;5088286;28;20046;-87
2023/04/03 07:39:09;;;;;;;9.13;2.35;;;2.40;99.90;;;;;;5082245;28;20054;-87
2023/04/03 07:41:35;;;;;;;6.47;2.00;;;2.50;99.90;;;;;;5082645;28;20100;-87
2023/04/03 07:44:04;;;;;;;5.38;2.20;;;2.60;99.90;;;;;;5082277;28;20074;-87
2023/04/03 07:46:31;;;;;;;5.65;1.75;;;2.70;99.90;;;;;;5115230;28;20031;-86
2023/04/03 07:48:58;;;;;;;8.52;2.13;;;2.90;99.90;;;;;;5098514;28;20071;-88
2023/04/03 07:51:26;;;;;;;10.38;2.30;;;3.00;99.90;;;;;;5115904;28;20074;-87
2023/04/03 07:53:52;;;;;;;5.38;1.73;;;3.10;99.90;;;;;;5083509;28;20047;-88
2023/04/03 07:56:20;;;;;;;4.93;1.70;;;3.30;99.90;;;;;;5099432;28;20413;-89
2023/04/03 07:58:47;;;;;;;6.55;2.08;;;3.30;99.90;;;;;;5082799;28;20050;-88
2023/04/03 08:01:13;;;;;;;8.63;2.13;;;3.40;99.90;;;;;;5079557;28;20769;-88
2023/04/03 08:03:40;;;;;;;8.63;2.20;;;3.80;99.90;;;;;;5061985;28;20032;-88
2023/04/03 08:06:08;;;;;;;5.55;1.90;;;3.60;99.90;;;;;;5090873;28;20039;-88
2023/04/03 08:08:35;;;;;;;8.40;1.92;;;3.70;99.90;;;;;;5099743;28;20040;-88
2023/04/03 08:11:05;;;;;;;5.97;1.90;;;3.90;99.90;;;;;;5098470;28;20044;-88
2023/04/03 08:13:32;;;;;;;7.97;2.08;;;3.90;99.90;;;;;;5110492;28;20046;-87
2023/04/03 08:16:09;;;;;;;7.05;1.80;;;4.00;99.90;;;;;;5095128;28;20039;-87
2023/04/03 08:18:36;;;;;;;5.90;1.80;;;4.10;99.90;;;;;;5095112;28;20083;-87
2023/04/03 08:21:07;;;;;;;5.32;1.52;;;4.20;99.90;;;;;;5061811;28;20083;-87
2023/04/03 08:23:34;;;;;;;5.95;1.60;;;4.30;99.90;;;;;;5095390;28;20043;-87
2023/04/03 08:26:16;;;;;;;5.82;1.90;;;4.50;99.90;;;;;;5097860;28;20706;-87
2023/04/03 08:28:43;;;;;;;5.13;1.80;;;4.60;99.90;;;;;;5115576;28;20071;-88
2023/04/03 08:31:16;;;;;;;4.35;1.80;;;4.70;99.90;;;;;;5115011;28;20050;-87
2023/04/03 08:33:43;;;;;;;6.15;2.15;;;4.70;99.90;;;;;;5114269;28;20135;-88
2023/04/03 08:36:36;;;;;;;6.35;1.58;;;4.90;99.90;;;;;;5114823;28;20585;-87
2023/04/03 08:39:03;;;;;;;5.75;1.73;;;4.90;99.90;;;;;;5109621;28;20176;-88
2023/04/03 08:41:39;;;;;;;5.80;1.30;;;5.10;99.90;;;;;;5115411;28;20496;-88
2023/04/03 08:44:06;;;;;;;;;;;5.20;99.90;;;;;;5115030;28;20036;-87
2023/04/03 08:46:45;;;;;;;3.42;1.20;;;5.40;99.90;;;;;;5114489;28;19991;-88
2023/04/03 08:49:33;;;;;;;5.55;1.55;;;5.50;99.90;;;;;;5114451;28;20404;-88
2023/04/03 08:52:04;;;;;;;4.10;1.33;;;5.60;99.90;;;;;;5115087;28;20047;-88
2023/04/03 08:54:32;;;;;;;3.17;1.10;;;5.70;99.90;;;;;;5115062;28;20047;-88
2023/04/03 08:57:02;;;;;;;3.15;1.13;;;5.80;99.90;;;;;;5113675;28;20130;-87
2023/04/03 08:59:33;;;;;;;4.00;1.20;;;5.80;99.90;;;;;;5131621;28;20055;-88
2023/04/03 09:02:06;;;;;;;4.72;1.35;;;5.90;99.90;;;;;;5114368;28;20036;-88
2023/04/03 09:04:34;;;;;;;3.92;1.20;;;5.90;99.90;;;;;;5114559;28;20063;-87
2023/04/03 09:07:16;;;;;;;5.45;1.30;;;6.00;99.90;;;;;;5097517;28;20036;-87
2023/04/03 09:09:43;;;;;;;2.53;0.73;;;6.10;99.90;;;;;;5113974;28;20043;-87
2023/04/03 09:12:23;;;;;;;5.32;1.70;;;6.20;99.90;;;;;;5080875;28;20188;-88
2023/04/03 09:15:16;;;;;;;7.20;1.33;;;6.30;99.90;;;;;;5114474;28;20521;-88
2023/04/03 09:18:04;;;;;;;4.18;1.00;;;6.50;99.90;;;;;;5130884;28;20092;-87
2023/04/03 09:20:50;;;;;;;4.75;1.33;;;6.50;99.90;;;;;;5114392;28;20051;-89
2023/04/03 09:24:01;;;;;;;4.15;1.35;;;6.60;99.90;;;;;;5113571;28;20046;-87
2023/04/03 09:26:36;;;;;;;3.97;1.00;;;6.60;99.90;;;;;;5114066;28;20096;-88
2023/04/03 09:29:07;;;;;;;2.88;1.10;;;6.70;99.90;;;;;;5130961;28;20080;-87
2023/04/03 09:31:40;;;;;;;3.92;1.17;;;6.80;99.90;;;;;;5130748;28;20035;-87
2023/04/03 09:34:15;;;;;;;5.93;1.38;;;6.90;99.90;;;;;;5130660;28;20090;-86
2023/04/03 09:36:45;;;;;;;3.80;0.90;;;7.10;99.90;;;;;;5114010;28;20071;-88
2023/04/03 09:39:24;;;;;;;3.88;1.00;;;7.10;99.90;;;;;;5113180;28;20555;-87
2023/04/03 09:42:02;;;;;;;4.07;1.20;;;7.30;99.90;;;;;;5114300;28;20127;-88
2023/04/03 09:44:35;;;;;;;2.50;0.95;;;7.40;99.90;;;;;;5113604;28;20153;-88
2023/04/03 09:47:34;;;;;;;3.28;1.00;;;7.40;99.90;;;;;;5113482;28;20131;-87
2023/04/03 09:50:14;;;;;;;2.53;1.00;;;7.50;99.90;;;;;;5113111;28;20039;-86
2023/04/03 09:52:42;;;;;;;2.67;1.00;;;7.70;99.90;;;;;;5095991;28;20039;-87
2023/04/03 09:55:17;;;;;;;3.15;1.05;;;7.80;99.90;;;;;;5076527;28;20039;-89
2023/04/03 09:57:45;;;;;;;2.22;0.88;;;7.80;99.90;;;;;;5093412;28;20047;-87
2023/04/03 10:00:23;;;;;;;4.45;1.02;;;7.90;99.90;;;;;;5076734;28;20039;-88
2023/04/03 10:02:55;;;;;;;3.92;0.98;;;8.00;99.90;;;;;;5092991;28;20040;-88
2023/04/03 10:05:39;;;;;;;1.90;0.60;;;8.10;99.90;;;;;;5109829;28;20516;-88
2023/04/03 10:08:16;;;;;;;3.15;0.80;;;8.20;96.60;;;;;;5092486;28;20040;-88
2023/04/03 10:10:46;;;;;;;2.88;1.00;;;8.30;98.60;;;;;;5093068;28;20488;-88
2023/04/03 10:13:20;;;;;;;2.85;0.82;;;8.30;99.90;;;;;;5076303;28;20055;-87
2023/04/03 10:16:06;;;;;;;2.65;0.90;;;8.40;99.90;;;;;;5092338;28;20047;-86
2023/04/03 10:18:38;;;;;;;1.55;0.70;;;8.40;98.40;;;;;;5092865;28;20032;-87
2023/04/03 10:21:28;;;;;;;2.33;0.70;;;8.50;99.70;;;;;;5092178;28;20052;-87
2023/04/03 10:24:08;;;;;;;5.55;0.82;;;8.40;97.80;;;;;;5092393;28;20044;-87
2023/04/03 10:26:56;;;;;;;3.08;0.90;;;8.50;96.60;;;;;;5092928;28;20047;-87
2023/04/03 10:30:07;;;;;;;2.40;0.80;;;8.70;98.70;;;;;;5092405;28;20507;-86
2023/04/03 10:33:05;;;;;;;2.10;0.80;;;8.80;97.30;;;;;;5029290;28;20060;-88
2023/04/03 10:36:12;;;;;;;4.32;0.90;;;8.90;94.80;;;;;;5028878;28;20061;-87
2023/04/03 10:38:47;;;;;;;2.45;0.80;;;9.00;95.90;;;;;;5096505;28;20056;-88
2023/04/03 10:41:24;;;;;;;1.95;0.70;;;9.00;98.50;;;;;;5092937;28;20486;-88
2023/04/03 10:44:18;;;;;;;2.35;0.80;;;9.10;96.40;;;;;;5096618;28;20495;-87
2023/04/03 10:46:50;;;;;;;2.97;0.90;;;9.00;95.40;;;;;;5113173;28;20039;-87
2023/04/03 10:49:46;;;;;;;2.55;0.65;;;9.00;95.10;;;;;;5094844;28;20449;-87
2023/04/03 10:52:32;;;;;;;2.30;0.88;;;9.10;93.50;;;;;;5091963;28;20068;-86
2023/04/03 10:55:37;;;;;;;2.43;1.00;;;8.90;93.90;;;;;;5092022;28;20040;-87
2023/04/03 10:58:05;;;;;;;2.17;0.80;;;9.00;92.40;;;;;;5071971;28;20485;-86
2023/04/03 11:00:48;;;;;;;3.03;0.80;;;9.10;96.10;;;;;;5057900;28;20123;-87
2023/04/03 11:03:33;;;;;;;3.03;0.70;;;9.10;94.50;;;;;;5110499;28;20043;-86
2023/04/03 11:06:03;;;;;;;1.52;0.70;;;9.00;94.80;;;;;;5136966;28;20507;-87
2023/04/03 11:08:39;;;;;;;2.58;0.80;;;9.00;94.20;;;;;;5108248;28;20048;-86
2023/04/03 11:11:11;;;;;;;2.80;1.02;;;9.10;95.00;;;;;;5091721;28;20467;-86
2023/04/03 11:13:54;;;;;;;3.58;0.77;;;9.10;93.70;;;;;;5092314;28;20500;-88
2023/04/03 11:16:26;;;;;;;1.52;0.80;;;9.20;94.40;;;;;;5092029;28;20039;-87
2023/04/03 11:19:23;;;;;;;2.03;0.82;;;9.20;92.40;;;;;;5142434;28;20032;-87
2023/04/03 11:22:13;;;;;;;2.97;0.80;;;9.30;93.90;;;;;;5145381;28;20044;-86
2023/04/03 11:24:42;;;;;;;2.30;0.98;;;9.30;93.70;;;;;;5095607;28;20144;-86
2023/04/03 11:27:22;;;;;;;2.78;0.90;;;9.40;94.40;;;;;;5094597;28;20040;-86
2023/04/03 11:29:50;;;;;;;3.05;1.10;;;9.40;94.30;;;;;;5094675;28;20689;-86
2023/04/03 11:33:02;;;;;;;2.15;0.95;;;9.30;95.00;;;;;;5082497;28;20043;-86
2023/04/03 11:35:30;;;;;;;3.05;0.95;;;9.40;93.70;;;;;;5082190;28;20884;-86
2023/04/03 11:37:59;;;;;;;2.13;0.80;;;9.50;95.30;;;;;;5094798;28;20079;-86
2023/04/03 11:40:32;;;;;;;2.88;1.00;;;9.40;94.80;;;;;;5094650;28;20044;-86
2023/04/03 11:42:58;;;;;;;4.78;2.08;;;9.40;94.30;;;;;;5089709;28;20037;-86
2023/04/03 11:45:33;;;;;;;3.50;1.20;;;9.60;94.90;;;;;;5094984;28;20044;-86
2023/04/03 11:48:22;;;;;;;3.03;1.08;;;9.50;93.80;;;;;;5095425;28;20039;-86
2023/04/03 11:50:50;;;;;;;4.70;1.00;;;9.60;93.80;;;;;;5094873;28;20052;-86
2023/04/03 11:53:16;;;;;;;2.28;1.00;;;9.60;93.30;;;;;;5066751;28;20411;-86
2023/04/03 11:55:49;;;;;;;2.70;0.73;;;9.60;93.60;;;;;;5111345;28;20036;-86
2023/04/03 11:58:18;;;;;;;2.17;0.90;;;9.50;91.80;;;;;;5111030;28;20044;-86
2023/04/03 12:00:51;;;;;;;2.28;0.73;;;9.30;90.50;;;;;;5108738;28;20036;-86
2023/04/03 12:03:26;;;;;;;2.63;0.98;;;9.30;92.60;;;;;;5085101;28;20492;-86
2023/04/03 12:06:16;;;;;;;;;;;9.40;92.70;;;;;;5094079;28;20035;-85
2023/04/03 12:08:46;;;;;;;2.17;0.80;;;9.50;91.30;;;;;;5095408;28;19954;-86
2023/04/03 12:11:13;;;;;;;1.92;0.77;;;9.60;93.60;;;;;;5091478;28;20039;-86
2023/04/03 12:13:56;;;;;;;4.18;1.10;;;9.70;93.20;;;;;;5090959;28;20044;-86
2023/04/03 12:16:33;;;;;;;4.13;0.90;;;9.60;92.70;;;;;;5094757;28;20047;-86
2023/04/03 12:19:03;;;;;;;1.80;0.70;;;9.60;92.20;;;;;;5076135;28;20044;-86
2023/04/03 12:21:30;;;;;;;5.40;0.93;;;9.60;92.70;;;;;;5094190;28;20040;-86
2023/04/03 12:24:01;;;;;;;3.50;1.10;;;9.50;92.50;;;;;;5094776;28;20088;-87
2023/04/03 12:26:32;;;;;;;3.47;1.00;;;9.50;92.80;;;;;;5093871;28;20040;-86
2023/04/03 12:29:02;;;;;;;2.58;1.00;;;9.50;92.50;;;;;;5110954;28;20550;-86
2023/04/03 12:31:46;;;;;;;1.90;0.70;;;9.50;91.10;;;;;;5077752;28;20827;-86
2023/04/03 12:35:08;;;;;;;2.97;0.70;;;9.50;91.60;;;;;;5093958;28;20040;-86
2023/04/03 12:38:13;;;;;;;1.77;0.75;;;9.60;91.60;;;;;;5077826;28;20052;-86
2023/04/03 12:41:10;;;;;;;1.50;0.70;;;9.60;92.20;;;;;;5094062;28;20044;-86
2023/04/03 12:44:07;;;;;;;4.22;1.00;;;9.50;91.10;;;;;;5102642;28;20403;-87
2023/04/03 12:46:44;;;;;;;1.80;0.80;;;9.50;92.10;;;;;;5114529;28;20093;-87
2023/04/03 12:49:36;;;;;;;3.30;0.90;;;9.40;92.00;;;;;;5114574;28;20402;-87
2023/04/03 12:52:16;;;;;;;2.55;0.85;;;9.30;90.80;;;;;;5114057;28;20130;-87
2023/04/03 12:54:46;;;;;;;3.88;1.10;;;9.30;92.30;;;;;;5101018;28;20052;-87
2023/04/03 12:57:23;;;;;;;2.67;0.85;;;9.30;90.80;;;;;;5093635;28;20411;-87
2023/04/03 12:59:50;;;;;;;2.28;0.75;;;9.30;90.40;;;;;;5093699;28;20555;-86
2023/04/03 13:02:35;;;;;;;3.25;0.90;;;9.30;92.20;;;;;;5060279;28;20128;-86
2023/04/03 13:05:08;;;;;;;1.92;0.80;;;9.20;90.50;;;;;;5060418;28;20036;-86
2023/04/03 13:07:38;;;;;;;4.20;1.00;;;9.30;91.40;;;;;;5110280;28;20106;-87
2023/04/03 13:10:08;;;;;;;2.65;0.80;;;9.30;92.10;;;;;;5093788;28;20048;-86
2023/04/03 13:12:49;;;;;;;2.88;0.90;;;9.30;91.30;;;;;;5092992;28;20046;-86
2023/04/03 13:15:29;;;;;;;3.08;0.90;;;9.40;91.10;;;;;;5094767;28;20036;-87
2023/04/03 13:17:57;;;;;;;2.47;1.10;;;9.40;91.50;;;;;;5089600;28;20513;-87